sensor_id;sensor_type;location;lat;lon;timestamp;temperature;humidity
10492;DHT22;5293;51.464;-2.566;2022-11-13T00:01:55;13.20;99.90
10492;DHT22;5293;51.464;-2.566;2022-11-13T00:04:21;13.20;99.90
10492;DHT22;5293;51.464;-2.566;2022-11-13T00:06:47;13.20;99.90
10492;DHT22;5293;51.464;-2.566;2022-11-13T00:09:12;13.20;99.90
10492;DHT22;5293;51.464;-2.566;2022-11-13T00:11:38;13.20;99.90
10492;DHT22;5293;51.464;-2.566;2022-11-13T00:14:04;13.20;99.90
10492;DHT22;5293;51.464;-2.566;2022-11-13T00:16:30;13.10;99.90
10492;DHT22;5293;51.464;-2.566;2022-11-13T00:18:55;13.10;99.90
10492;DHT22;5293;51.464;-2.566;2022-11-13T00:21:23;13.10;99.90
10492;DHT22;5293;51.464;-2.566;2022-11-13T00:23:50;13.10;99.90
10492;DHT22;5293;51.464;-2.566;2022-11-13T00:26:26;13.10;99.90
10492;DHT22;5293;51.464;-2.566;2022-11-13T00:28:54;13.10;99.90
10492;DHT22;5293;51.464;-2.566;2022-11-13T00:31:20;13.10;99.90
10492;DHT22;5293;51.464;-2.566;2022-11-13T00:33:46;13.10;99.90
10492;DHT22;5293;51.464;-2.566;2022-11-13T00:36:17;13.10;99.90
10492;DHT22;5293;51.464;-2.566;2022-11-13T00:38:43;13.10;99.90
10492;DHT22;5293;51.464;-2.566;2022-11-13T00:41:09;13.10;99.90
10492;DHT22;5293;51.464;-2.566;2022-11-13T00:43:35;13.10;99.90
10492;DHT22;5293;51.464;-2.566;2022-11-13T00:46:01;13.10;99.90
10492;DHT22;5293;51.464;-2.566;2022-11-13T00:48:26;13.10;99.90
10492;DHT22;5293;51.464;-2.566;2022-11-13T00:50:52;13.10;99.90
10492;DHT22;5293;51.464;-2.566;2022-11-13T00:53:18;13.10;99.90
10492;DHT22;5293;51.464;-2.566;2022-11-13T00:55:47;13.10;99.90
10492;DHT22;5293;51.464;-2.566;2022-11-13T00:58:14;13.00;99.90
10492;DHT22;5293;51.464;-2.566;2022-11-13T01:00:41;13.00;99.90
10492;DHT22;5293;51.464;-2.566;2022-11-13T01:03:08;13.00;99.90
10492;DHT22;5293;51.464;-2.566;2022-11-13T01:05:37;13.00;99.90
10492;DHT22;5293;51.464;-2.566;2022-11-13T01:08:04;13.00;99.90
10492;DHT22;5293;51.464;-2.566;2022-11-13T01:10:31;13.00;99.90
10492;DHT22;5293;51.464;-2.566;2022-11-13T01:12:56;13.00;99.90
10492;DHT22;5293;51.464;-2.566;2022-11-13T01:15:22;13.00;99.90
10492;DHT22;5293;51.464;-2.566;2022-11-13T01:17:48;13.00;99.90
10492;DHT22;5293;51.464;-2.566;2022-11-13T01:20:13;13.00;99.90
10492;DHT22;5293;51.464;-2.566;2022-11-13T01:22:39;13.00;99.90
10492;DHT22;5293;51.464;-2.566;2022-11-13T01:25:05;13.00;99.90
10492;DHT22;5293;51.464;-2.566;2022-11-13T01:27:31;13.00;99.90
10492;DHT22;5293;51.464;-2.566;2022-11-13T01:29:59;13.00;99.90
10492;DHT22;5293;51.464;-2.566;2022-11-13T01:32:25;13.00;99.90
10492;DHT22;5293;51.464;-2.566;2022-11-13T01:34:51;13.00;99.90
10492;DHT22;5293;51.464;-2.566;2022-11-13T01:37:16;13.00;99.90
10492;DHT22;5293;51.464;-2.566;2022-11-13T01:39:42;13.00;99.90
10492;DHT22;5293;51.464;-2.566;2022-11-13T01:42:07;13.00;99.90
10492;DHT22;5293;51.464;-2.566;2022-11-13T01:44:54;13.00;99.90
10492;DHT22;5293;51.464;-2.566;2022-11-13T01:47:21;13.00;99.90
10492;DHT22;5293;51.464;-2.566;2022-11-13T01:49:49;13.00;99.90
10492;DHT22;5293;51.464;-2.566;2022-11-13T01:52:28;13.00;99.90
10492;DHT22;5293;51.464;-2.566;2022-11-13T01:55:05;13.00;99.90
10492;DHT22;5293;51.464;-2.566;2022-11-13T01:57:34;13.00;99.90
10492;DHT22;5293;51.464;-2.566;2022-11-13T02:00:03;12.90;99.90
10492;DHT22;5293;51.464;-2.566;2022-11-13T02:02:30;13.00;99.90
10492;DHT22;5293;51.464;-2.566;2022-11-13T02:04:56;13.00;99.90
10492;DHT22;5293;51.464;-2.566;2022-11-13T02:07:22;13.00;99.90
10492;DHT22;5293;51.464;-2.566;2022-11-13T02:09:50;13.00;99.90
10492;DHT22;5293;51.464;-2.566;2022-11-13T02:12:28;13.10;99.90
10492;DHT22;5293;51.464;-2.566;2022-11-13T02:14:56;13.00;99.90
10492;DHT22;5293;51.464;-2.566;2022-11-13T02:17:28;13.00;99.90
10492;DHT22;5293;51.464;-2.566;2022-11-13T02:19:58;13.00;99.90
10492;DHT22;5293;51.464;-2.566;2022-11-13T02:22:42;13.00;99.90
10492;DHT22;5293;51.464;-2.566;2022-11-13T02:25:09;13.00;99.90
10492;DHT22;5293;51.464;-2.566;2022-11-13T02:27:43;13.00;99.90
10492;DHT22;5293;51.464;-2.566;2022-11-13T02:32:50;13.00;99.90
10492;DHT22;5293;51.464;-2.566;2022-11-13T02:35:29;13.10;99.90
10492;DHT22;5293;51.464;-2.566;2022-11-13T02:37:57;13.00;99.90
10492;DHT22;5293;51.464;-2.566;2022-11-13T02:40:23;13.10;99.90
10492;DHT22;5293;51.464;-2.566;2022-11-13T02:42:49;13.10;99.90
10492;DHT22;5293;51.464;-2.566;2022-11-13T02:45:15;13.10;99.90
10492;DHT22;5293;51.464;-2.566;2022-11-13T02:47:40;13.10;99.90
10492;DHT22;5293;51.464;-2.566;2022-11-13T02:50:07;13.10;99.90
10492;DHT22;5293;51.464;-2.566;2022-11-13T02:52:32;13.20;99.90
10492;DHT22;5293;51.464;-2.566;2022-11-13T02:54:58;13.10;99.90
10492;DHT22;5293;51.464;-2.566;2022-11-13T02:57:24;13.20;99.90
10492;DHT22;5293;51.464;-2.566;2022-11-13T02:59:50;13.20;99.90
10492;DHT22;5293;51.464;-2.566;2022-11-13T03:02:15;13.20;99.90
10492;DHT22;5293;51.464;-2.566;2022-11-13T03:04:41;13.20;99.90
10492;DHT22;5293;51.464;-2.566;2022-11-13T03:07:07;13.20;99.90
10492;DHT22;5293;51.464;-2.566;2022-11-13T03:09:32;13.10;99.90
10492;DHT22;5293;51.464;-2.566;2022-11-13T03:11:58;13.10;99.90
10492;DHT22;5293;51.464;-2.566;2022-11-13T03:14:24;13.10;99.90
10492;DHT22;5293;51.464;-2.566;2022-11-13T03:16:49;13.10;99.90
10492;DHT22;5293;51.464;-2.566;2022-11-13T03:19:15;13.10;99.90
10492;DHT22;5293;51.464;-2.566;2022-11-13T03:21:40;13.10;99.90
10492;DHT22;5293;51.464;-2.566;2022-11-13T03:24:06;13.10;99.90
10492;DHT22;5293;51.464;-2.566;2022-11-13T03:26:32;13.10;99.90
10492;DHT22;5293;51.464;-2.566;2022-11-13T03:28:58;13.10;99.90
10492;DHT22;5293;51.464;-2.566;2022-11-13T03:31:24;13.10;99.90
10492;DHT22;5293;51.464;-2.566;2022-11-13T03:33:52;13.10;99.90
10492;DHT22;5293;51.464;-2.566;2022-11-13T03:36:18;13.10;99.90
10492;DHT22;5293;51.464;-2.566;2022-11-13T03:38:44;13.00;99.90
10492;DHT22;5293;51.464;-2.566;2022-11-13T03:41:09;13.00;99.90
10492;DHT22;5293;51.464;-2.566;2022-11-13T03:43:35;13.00;99.90
10492;DHT22;5293;51.464;-2.566;2022-11-13T03:46:01;13.00;99.90
10492;DHT22;5293;51.464;-2.566;2022-11-13T03:48:26;13.10;99.90
10492;DHT22;5293;51.464;-2.566;2022-11-13T03:50:54;13.00;99.90
10492;DHT22;5293;51.464;-2.566;2022-11-13T03:53:20;13.00;99.90
10492;DHT22;5293;51.464;-2.566;2022-11-13T03:55:46;13.00;99.90
10492;DHT22;5293;51.464;-2.566;2022-11-13T03:58:12;13.00;99.90
10492;DHT22;5293;51.464;-2.566;2022-11-13T04:00:39;13.00;99.90
10492;DHT22;5293;51.464;-2.566;2022-11-13T04:03:05;13.00;99.90
10492;DHT22;5293;51.464;-2.566;2022-11-13T04:05:30;12.90;99.90
10492;DHT22;5293;51.464;-2.566;2022-11-13T04:07:56;13.00;99.90
10492;DHT22;5293;51.464;-2.566;2022-11-13T04:10:22;12.90;99.90
10492;DHT22;5293;51.464;-2.566;2022-11-13T04:12:47;12.90;99.90
10492;DHT22;5293;51.464;-2.566;2022-11-13T04:15:13;12.90;99.90
10492;DHT22;5293;51.464;-2.566;2022-11-13T04:17:39;12.90;99.90
10492;DHT22;5293;51.464;-2.566;2022-11-13T04:20:05;12.90;99.90
10492;DHT22;5293;51.464;-2.566;2022-11-13T04:22:31;12.90;99.90
10492;DHT22;5293;51.464;-2.566;2022-11-13T04:24:57;12.90;99.90
10492;DHT22;5293;51.464;-2.566;2022-11-13T04:27:22;12.90;99.90
10492;DHT22;5293;51.464;-2.566;2022-11-13T04:29:48;13.00;99.90
10492;DHT22;5293;51.464;-2.566;2022-11-13T04:32:13;13.00;99.90
10492;DHT22;5293;51.464;-2.566;2022-11-13T04:34:39;13.00;99.90
10492;DHT22;5293;51.464;-2.566;2022-11-13T04:37:05;13.10;99.90
10492;DHT22;5293;51.464;-2.566;2022-11-13T04:39:30;13.10;99.90
10492;DHT22;5293;51.464;-2.566;2022-11-13T04:41:56;13.00;99.90
10492;DHT22;5293;51.464;-2.566;2022-11-13T04:44:40;13.00;99.90
10492;DHT22;5293;51.464;-2.566;2022-11-13T04:47:06;13.00;99.90
10492;DHT22;5293;51.464;-2.566;2022-11-13T04:49:31;13.00;99.90
10492;DHT22;5293;51.464;-2.566;2022-11-13T04:51:57;13.00;99.90
10492;DHT22;5293;51.464;-2.566;2022-11-13T04:54:23;13.00;99.90
10492;DHT22;5293;51.464;-2.566;2022-11-13T04:56:49;13.00;99.90
10492;DHT22;5293;51.464;-2.566;2022-11-13T04:59:14;13.00;99.90
10492;DHT22;5293;51.464;-2.566;2022-11-13T05:01:40;12.90;99.90
10492;DHT22;5293;51.464;-2.566;2022-11-13T05:04:05;12.90;99.90
10492;DHT22;5293;51.464;-2.566;2022-11-13T05:06:31;12.90;99.90
10492;DHT22;5293;51.464;-2.566;2022-11-13T05:08:57;12.90;99.90
10492;DHT22;5293;51.464;-2.566;2022-11-13T05:11:22;12.80;99.90
10492;DHT22;5293;51.464;-2.566;2022-11-13T05:13:48;12.80;99.90
10492;DHT22;5293;51.464;-2.566;2022-11-13T05:16:14;12.80;99.90
10492;DHT22;5293;51.464;-2.566;2022-11-13T05:18:40;12.80;99.90
10492;DHT22;5293;51.464;-2.566;2022-11-13T05:21:07;12.80;99.90
10492;DHT22;5293;51.464;-2.566;2022-11-13T05:23:34;12.80;99.90
10492;DHT22;5293;51.464;-2.566;2022-11-13T05:26:05;12.80;99.90
10492;DHT22;5293;51.464;-2.566;2022-11-13T05:28:31;12.70;99.90
10492;DHT22;5293;51.464;-2.566;2022-11-13T05:31:12;12.70;99.90
10492;DHT22;5293;51.464;-2.566;2022-11-13T05:33:38;12.70;99.90
10492;DHT22;5293;51.464;-2.566;2022-11-13T05:36:15;12.70;99.90
10492;DHT22;5293;51.464;-2.566;2022-11-13T05:38:41;12.60;99.90
10492;DHT22;5293;51.464;-2.566;2022-11-13T05:41:16;12.60;99.90
10492;DHT22;5293;51.464;-2.566;2022-11-13T05:43:42;12.50;99.90
10492;DHT22;5293;51.464;-2.566;2022-11-13T05:46:16;12.50;99.90
10492;DHT22;5293;51.464;-2.566;2022-11-13T05:48:43;12.50;99.90
10492;DHT22;5293;51.464;-2.566;2022-11-13T05:51:14;12.50;99.90
10492;DHT22;5293;51.464;-2.566;2022-11-13T05:53:41;12.50;99.90
10492;DHT22;5293;51.464;-2.566;2022-11-13T05:56:10;12.40;99.90
10492;DHT22;5293;51.464;-2.566;2022-11-13T05:58:36;12.40;99.90
10492;DHT22;5293;51.464;-2.566;2022-11-13T06:01:11;12.40;99.90
10492;DHT22;5293;51.464;-2.566;2022-11-13T06:03:37;12.30;99.90
10492;DHT22;5293;51.464;-2.566;2022-11-13T06:06:05;12.30;99.90
10492;DHT22;5293;51.464;-2.566;2022-11-13T06:08:30;12.30;99.90
10492;DHT22;5293;51.464;-2.566;2022-11-13T06:11:00;12.30;99.90
10492;DHT22;5293;51.464;-2.566;2022-11-13T06:13:27;12.30;99.90
10492;DHT22;5293;51.464;-2.566;2022-11-13T06:15:53;12.30;99.90
10492;DHT22;5293;51.464;-2.566;2022-11-13T06:18:23;12.30;99.90
10492;DHT22;5293;51.464;-2.566;2022-11-13T06:20:49;12.30;99.90
10492;DHT22;5293;51.464;-2.566;2022-11-13T06:23:14;12.30;99.90
10492;DHT22;5293;51.464;-2.566;2022-11-13T06:25:40;12.30;99.90
10492;DHT22;5293;51.464;-2.566;2022-11-13T06:28:06;12.30;99.90
10492;DHT22;5293;51.464;-2.566;2022-11-13T06:30:32;12.30;99.90
10492;DHT22;5293;51.464;-2.566;2022-11-13T06:32:57;12.30;99.90
10492;DHT22;5293;51.464;-2.566;2022-11-13T06:35:23;12.30;99.90
10492;DHT22;5293;51.464;-2.566;2022-11-13T06:37:49;12.30;99.90
10492;DHT22;5293;51.464;-2.566;2022-11-13T06:40:14;12.40;99.90
10492;DHT22;5293;51.464;-2.566;2022-11-13T06:42:40;12.40;99.90
10492;DHT22;5293;51.464;-2.566;2022-11-13T06:45:06;12.40;99.90
10492;DHT22;5293;51.464;-2.566;2022-11-13T06:47:32;12.40;99.90
10492;DHT22;5293;51.464;-2.566;2022-11-13T06:49:57;12.50;99.90
10492;DHT22;5293;51.464;-2.566;2022-11-13T06:52:23;12.50;99.90
10492;DHT22;5293;51.464;-2.566;2022-11-13T06:54:49;12.60;99.90
10492;DHT22;5293;51.464;-2.566;2022-11-13T06:57:14;12.60;99.90
10492;DHT22;5293;51.464;-2.566;2022-11-13T06:59:40;12.60;99.90
10492;DHT22;5293;51.464;-2.566;2022-11-13T07:02:08;12.60;99.90
10492;DHT22;5293;51.464;-2.566;2022-11-13T07:04:35;12.60;99.90
10492;DHT22;5293;51.464;-2.566;2022-11-13T07:07:01;12.70;99.90
10492;DHT22;5293;51.464;-2.566;2022-11-13T07:09:28;12.70;99.90
10492;DHT22;5293;51.464;-2.566;2022-11-13T07:11:54;12.70;99.90
10492;DHT22;5293;51.464;-2.566;2022-11-13T07:14:20;12.80;99.90
10492;DHT22;5293;51.464;-2.566;2022-11-13T07:16:45;12.80;99.90
10492;DHT22;5293;51.464;-2.566;2022-11-13T07:19:11;12.90;99.90
10492;DHT22;5293;51.464;-2.566;2022-11-13T07:21:37;12.90;99.90
10492;DHT22;5293;51.464;-2.566;2022-11-13T07:24:02;12.90;99.90
10492;DHT22;5293;51.464;-2.566;2022-11-13T07:26:28;12.80;99.90
10492;DHT22;5293;51.464;-2.566;2022-11-13T07:28:54;12.90;99.90
10492;DHT22;5293;51.464;-2.566;2022-11-13T07:31:19;12.90;99.90
10492;DHT22;5293;51.464;-2.566;2022-11-13T07:33:47;12.90;99.90
10492;DHT22;5293;51.464;-2.566;2022-11-13T07:36:13;12.90;99.90
10492;DHT22;5293;51.464;-2.566;2022-11-13T07:38:39;12.80;99.90
10492;DHT22;5293;51.464;-2.566;2022-11-13T07:41:05;12.90;99.90
10492;DHT22;5293;51.464;-2.566;2022-11-13T07:43:31;12.90;99.90
10492;DHT22;5293;51.464;-2.566;2022-11-13T07:45:58;13.00;99.90
10492;DHT22;5293;51.464;-2.566;2022-11-13T07:48:23;13.70;99.90
10492;DHT22;5293;51.464;-2.566;2022-11-13T07:50:50;13.00;99.90
10492;DHT22;5293;51.464;-2.566;2022-11-13T07:53:16;13.00;99.90
10492;DHT22;5293;51.464;-2.566;2022-11-13T07:55:42;13.10;99.90
10492;DHT22;5293;51.464;-2.566;2022-11-13T07:58:08;13.10;99.90
10492;DHT22;5293;51.464;-2.566;2022-11-13T08:00:34;13.10;99.90
10492;DHT22;5293;51.464;-2.566;2022-11-13T08:03:11;13.10;99.90
10492;DHT22;5293;51.464;-2.566;2022-11-13T08:05:37;13.10;99.90
10492;DHT22;5293;51.464;-2.566;2022-11-13T08:08:04;13.10;99.90
10492;DHT22;5293;51.464;-2.566;2022-11-13T08:10:31;13.10;99.90
10492;DHT22;5293;51.464;-2.566;2022-11-13T08:13:04;13.10;99.90
10492;DHT22;5293;51.464;-2.566;2022-11-13T08:15:31;13.10;99.90
10492;DHT22;5293;51.464;-2.566;2022-11-13T08:17:58;13.20;99.90
10492;DHT22;5293;51.464;-2.566;2022-11-13T08:20:25;13.30;99.90
10492;DHT22;5293;51.464;-2.566;2022-11-13T08:22:51;13.30;99.90
10492;DHT22;5293;51.464;-2.566;2022-11-13T08:25:17;13.30;99.90
10492;DHT22;5293;51.464;-2.566;2022-11-13T08:27:44;13.30;99.90
10492;DHT22;5293;51.464;-2.566;2022-11-13T08:30:10;13.40;99.90
10492;DHT22;5293;51.464;-2.566;2022-11-13T08:32:36;13.40;99.90
10492;DHT22;5293;51.464;-2.566;2022-11-13T08:35:01;13.40;99.90
10492;DHT22;5293;51.464;-2.566;2022-11-13T08:37:27;13.40;99.90
10492;DHT22;5293;51.464;-2.566;2022-11-13T08:39:53;13.40;99.90
10492;DHT22;5293;51.464;-2.566;2022-11-13T08:42:19;13.40;99.90
10492;DHT22;5293;51.464;-2.566;2022-11-13T08:44:44;13.50;99.90
10492;DHT22;5293;51.464;-2.566;2022-11-13T08:47:10;13.50;99.90
10492;DHT22;5293;51.464;-2.566;2022-11-13T08:49:35;13.60;99.90
10492;DHT22;5293;51.464;-2.566;2022-11-13T08:52:01;13.60;99.90
10492;DHT22;5293;51.464;-2.566;2022-11-13T08:54:27;13.60;99.90
10492;DHT22;5293;51.464;-2.566;2022-11-13T08:56:53;13.70;99.90
10492;DHT22;5293;51.464;-2.566;2022-11-13T08:59:18;13.60;99.90
10492;DHT22;5293;51.464;-2.566;2022-11-13T09:01:44;13.60;99.90
10492;DHT22;5293;51.464;-2.566;2022-11-13T09:04:10;13.70;99.90
10492;DHT22;5293;51.464;-2.566;2022-11-13T09:06:35;13.80;99.90
10492;DHT22;5293;51.464;-2.566;2022-11-13T09:09:01;13.80;99.90
10492;DHT22;5293;51.464;-2.566;2022-11-13T09:11:28;13.80;99.90
10492;DHT22;5293;51.464;-2.566;2022-11-13T09:13:54;13.80;99.90
10492;DHT22;5293;51.464;-2.566;2022-11-13T09:16:20;13.80;99.90
10492;DHT22;5293;51.464;-2.566;2022-11-13T09:18:50;13.80;99.90
10492;DHT22;5293;51.464;-2.566;2022-11-13T09:21:16;13.80;99.90
10492;DHT22;5293;51.464;-2.566;2022-11-13T09:23:41;13.70;99.90
10492;DHT22;5293;51.464;-2.566;2022-11-13T09:26:07;13.70;99.90
10492;DHT22;5293;51.464;-2.566;2022-11-13T09:28:33;13.70;99.90
10492;DHT22;5293;51.464;-2.566;2022-11-13T09:30:58;13.70;99.90
10492;DHT22;5293;51.464;-2.566;2022-11-13T09:33:24;13.70;99.90
10492;DHT22;5293;51.464;-2.566;2022-11-13T09:35:49;13.70;99.90
10492;DHT22;5293;51.464;-2.566;2022-11-13T09:38:15;13.70;99.90
10492;DHT22;5293;51.464;-2.566;2022-11-13T09:43:40;13.80;99.90
10492;DHT22;5293;51.464;-2.566;2022-11-13T09:51:36;13.80;99.90
10492;DHT22;5293;51.464;-2.566;2022-11-13T09:54:08;13.80;99.90
10492;DHT22;5293;51.464;-2.566;2022-11-13T10:00:14;13.90;99.90
10492;DHT22;5293;51.464;-2.566;2022-11-13T10:08:34;14.00;99.90
10492;DHT22;5293;51.464;-2.566;2022-11-13T10:11:05;14.00;99.90
10492;DHT22;5293;51.464;-2.566;2022-11-13T10:13:46;14.00;99.90
10492;DHT22;5293;51.464;-2.566;2022-11-13T10:18:50;14.00;99.90
10492;DHT22;5293;51.464;-2.566;2022-11-13T10:21:32;14.10;99.90
10492;DHT22;5293;51.464;-2.566;2022-11-13T10:24:02;14.10;99.90
10492;DHT22;5293;51.464;-2.566;2022-11-13T10:26:28;14.20;99.90
10492;DHT22;5293;51.464;-2.566;2022-11-13T10:29:08;14.20;99.90
10492;DHT22;5293;51.464;-2.566;2022-11-13T10:34:45;14.40;99.90
10492;DHT22;5293;51.464;-2.566;2022-11-13T10:37:33;14.40;99.90
10492;DHT22;5293;51.464;-2.566;2022-11-13T10:40:06;14.50;99.90
10492;DHT22;5293;51.464;-2.566;2022-11-13T10:42:40;14.50;99.90
10492;DHT22;5293;51.464;-2.566;2022-11-13T10:45:17;14.50;99.90
10492;DHT22;5293;51.464;-2.566;2022-11-13T10:47:48;14.50;99.90
10492;DHT22;5293;51.464;-2.566;2022-11-13T10:50:34;14.50;99.90
10492;DHT22;5293;51.464;-2.566;2022-11-13T10:53:00;14.60;99.90
10492;DHT22;5293;51.464;-2.566;2022-11-13T10:55:48;14.60;99.90
10492;DHT22;5293;51.464;-2.566;2022-11-13T10:58:16;14.60;99.90
10492;DHT22;5293;51.464;-2.566;2022-11-13T11:00:44;14.70;99.90
10492;DHT22;5293;51.464;-2.566;2022-11-13T11:03:21;14.70;99.90
10492;DHT22;5293;51.464;-2.566;2022-11-13T11:06:05;14.70;99.90
10492;DHT22;5293;51.464;-2.566;2022-11-13T11:08:35;14.80;99.90
10492;DHT22;5293;51.464;-2.566;2022-11-13T11:11:15;14.80;99.90
10492;DHT22;5293;51.464;-2.566;2022-11-13T11:14:39;14.80;99.90
10492;DHT22;5293;51.464;-2.566;2022-11-13T11:17:04;14.80;99.90
10492;DHT22;5293;51.464;-2.566;2022-11-13T11:19:35;14.80;99.90
10492;DHT22;5293;51.464;-2.566;2022-11-13T11:22:14;14.90;99.90
10492;DHT22;5293;51.464;-2.566;2022-11-13T11:24:54;14.90;99.90
10492;DHT22;5293;51.464;-2.566;2022-11-13T11:30:07;15.00;99.90
10492;DHT22;5293;51.464;-2.566;2022-11-13T11:32:53;14.90;99.90
10492;DHT22;5293;51.464;-2.566;2022-11-13T11:35:31;15.00;99.90
10492;DHT22;5293;51.464;-2.566;2022-11-13T11:38:11;15.00;99.90
10492;DHT22;5293;51.464;-2.566;2022-11-13T11:40:44;15.00;99.90
10492;DHT22;5293;51.464;-2.566;2022-11-13T11:43:22;15.10;99.90
10492;DHT22;5293;51.464;-2.566;2022-11-13T11:45:49;15.20;99.90
10492;DHT22;5293;51.464;-2.566;2022-11-13T11:48:20;15.10;99.90
10492;DHT22;5293;51.464;-2.566;2022-11-13T11:59:11;15.20;99.90
10492;DHT22;5293;51.464;-2.566;2022-11-13T12:21:22;15.50;99.90
10492;DHT22;5293;51.464;-2.566;2022-11-13T12:23:52;15.40;99.90
10492;DHT22;5293;51.464;-2.566;2022-11-13T12:26:36;15.50;99.90
10492;DHT22;5293;51.464;-2.566;2022-11-13T12:34:28;15.60;99.90
10492;DHT22;5293;51.464;-2.566;2022-11-13T12:36:55;15.50;99.90
10492;DHT22;5293;51.464;-2.566;2022-11-13T12:42:19;15.50;99.90
10492;DHT22;5293;51.464;-2.566;2022-11-13T12:47:33;15.50;99.90
10492;DHT22;5293;51.464;-2.566;2022-11-13T12:50:06;15.50;99.90
10492;DHT22;5293;51.464;-2.566;2022-11-13T12:52:44;15.50;99.90
10492;DHT22;5293;51.464;-2.566;2022-11-13T12:55:52;15.50;99.90
10492;DHT22;5293;51.464;-2.566;2022-11-13T12:58:20;15.50;99.90
10492;DHT22;5293;51.464;-2.566;2022-11-13T13:06:11;15.70;99.90
10492;DHT22;5293;51.464;-2.566;2022-11-13T13:11:34;15.70;99.90
10492;DHT22;5293;51.464;-2.566;2022-11-13T13:16:45;15.80;99.90
10492;DHT22;5293;51.464;-2.566;2022-11-13T13:19:28;15.80;99.90
10492;DHT22;5293;51.464;-2.566;2022-11-13T13:21:55;15.80;99.90
10492;DHT22;5293;51.464;-2.566;2022-11-13T13:24:32;15.70;99.90
10492;DHT22;5293;51.464;-2.566;2022-11-13T13:26:59;15.70;99.90
10492;DHT22;5293;51.464;-2.566;2022-11-13T13:29:26;15.70;99.90
10492;DHT22;5293;51.464;-2.566;2022-11-13T13:32:42;15.70;99.90
10492;DHT22;5293;51.464;-2.566;2022-11-13T13:37:31;15.70;99.90
10492;DHT22;5293;51.464;-2.566;2022-11-13T13:48:01;15.80;99.90
10492;DHT22;5293;51.464;-2.566;2022-11-13T13:50:39;15.90;99.90
10492;DHT22;5293;51.464;-2.566;2022-11-13T13:53:08;16.00;99.90
10492;DHT22;5293;51.464;-2.566;2022-11-13T13:55:37;16.00;99.90
10492;DHT22;5293;51.464;-2.566;2022-11-13T13:58:11;15.90;99.90
10492;DHT22;5293;51.464;-2.566;2022-11-13T14:00:39;16.00;99.90
10492;DHT22;5293;51.464;-2.566;2022-11-13T14:03:20;16.00;99.90
10492;DHT22;5293;51.464;-2.566;2022-11-13T14:05:46;16.00;99.90
10492;DHT22;5293;51.464;-2.566;2022-11-13T14:08:20;16.00;99.90
10492;DHT22;5293;51.464;-2.566;2022-11-13T14:10:46;16.10;99.90
10492;DHT22;5293;51.464;-2.566;2022-11-13T14:13:12;16.10;99.90
10492;DHT22;5293;51.464;-2.566;2022-11-13T14:15:38;16.00;99.90
10492;DHT22;5293;51.464;-2.566;2022-11-13T14:18:14;16.00;99.90
10492;DHT22;5293;51.464;-2.566;2022-11-13T14:20:45;16.10;99.90
10492;DHT22;5293;51.464;-2.566;2022-11-13T14:23:17;16.10;99.90
10492;DHT22;5293;51.464;-2.566;2022-11-13T14:25:44;16.10;99.90
10492;DHT22;5293;51.464;-2.566;2022-11-13T14:28:19;16.20;99.90
10492;DHT22;5293;51.464;-2.566;2022-11-13T14:30:52;16.10;99.90
10492;DHT22;5293;51.464;-2.566;2022-11-13T14:33:27;16.10;99.90
10492;DHT22;5293;51.464;-2.566;2022-11-13T14:35:55;16.20;99.90
10492;DHT22;5293;51.464;-2.566;2022-11-13T14:38:26;16.10;99.90
10492;DHT22;5293;51.464;-2.566;2022-11-13T14:40:52;16.10;99.90
10492;DHT22;5293;51.464;-2.566;2022-11-13T14:43:28;16.10;99.90
10492;DHT22;5293;51.464;-2.566;2022-11-13T14:46:00;16.10;99.90
10492;DHT22;5293;51.464;-2.566;2022-11-13T14:48:30;16.10;99.90
10492;DHT22;5293;51.464;-2.566;2022-11-13T14:53:35;16.00;99.90
10492;DHT22;5293;51.464;-2.566;2022-11-13T14:56:05;16.00;99.90
10492;DHT22;5293;51.464;-2.566;2022-11-13T14:58:38;16.00;99.90
10492;DHT22;5293;51.464;-2.566;2022-11-13T15:01:16;16.00;99.90
10492;DHT22;5293;51.464;-2.566;2022-11-13T15:03:45;16.00;99.90
10492;DHT22;5293;51.464;-2.566;2022-11-13T15:06:20;16.00;99.90
10492;DHT22;5293;51.464;-2.566;2022-11-13T15:08:46;16.00;99.90
10492;DHT22;5293;51.464;-2.566;2022-11-13T15:11:14;16.00;99.90
10492;DHT22;5293;51.464;-2.566;2022-11-13T15:13:40;16.00;99.90
10492;DHT22;5293;51.464;-2.566;2022-11-13T15:16:09;16.00;99.90
10492;DHT22;5293;51.464;-2.566;2022-11-13T15:18:37;15.90;99.90
10492;DHT22;5293;51.464;-2.566;2022-11-13T15:21:03;15.80;99.90
10492;DHT22;5293;51.464;-2.566;2022-11-13T15:23:28;15.90;99.90
10492;DHT22;5293;51.464;-2.566;2022-11-13T15:25:54;15.70;99.90
10492;DHT22;5293;51.464;-2.566;2022-11-13T15:28:19;15.60;99.90
10492;DHT22;5293;51.464;-2.566;2022-11-13T15:30:45;15.60;99.90
10492;DHT22;5293;51.464;-2.566;2022-11-13T15:33:12;15.50;99.90
10492;DHT22;5293;51.464;-2.566;2022-11-13T15:35:40;15.40;99.90
10492;DHT22;5293;51.464;-2.566;2022-11-13T15:38:10;15.50;99.90
10492;DHT22;5293;51.464;-2.566;2022-11-13T15:40:37;15.50;99.90
10492;DHT22;5293;51.464;-2.566;2022-11-13T15:43:07;15.40;99.90
10492;DHT22;5293;51.464;-2.566;2022-11-13T15:45:36;15.40;99.90
10492;DHT22;5293;51.464;-2.566;2022-11-13T15:48:01;15.30;99.90
10492;DHT22;5293;51.464;-2.566;2022-11-13T15:50:27;15.30;99.90
10492;DHT22;5293;51.464;-2.566;2022-11-13T15:52:53;15.30;99.90
10492;DHT22;5293;51.464;-2.566;2022-11-13T15:57:47;15.20;99.90
10492;DHT22;5293;51.464;-2.566;2022-11-13T16:00:19;15.10;99.90
10492;DHT22;5293;51.464;-2.566;2022-11-13T16:02:50;15.10;99.90
10492;DHT22;5293;51.464;-2.566;2022-11-13T16:05:17;15.20;99.90
10492;DHT22;5293;51.464;-2.566;2022-11-13T16:07:42;15.10;99.90
10492;DHT22;5293;51.464;-2.566;2022-11-13T16:10:08;15.00;99.90
10492;DHT22;5293;51.464;-2.566;2022-11-13T16:12:35;14.90;99.90
10492;DHT22;5293;51.464;-2.566;2022-11-13T16:15:01;14.90;99.90
10492;DHT22;5293;51.464;-2.566;2022-11-13T16:17:27;14.90;99.90
10492;DHT22;5293;51.464;-2.566;2022-11-13T16:19:53;14.80;99.90
10492;DHT22;5293;51.464;-2.566;2022-11-13T16:22:21;14.70;99.90
10492;DHT22;5293;51.464;-2.566;2022-11-13T16:24:47;14.80;99.90
10492;DHT22;5293;51.464;-2.566;2022-11-13T16:27:16;14.80;99.90
10492;DHT22;5293;51.464;-2.566;2022-11-13T16:29:43;14.70;99.90
10492;DHT22;5293;51.464;-2.566;2022-11-13T16:32:13;14.60;99.90
10492;DHT22;5293;51.464;-2.566;2022-11-13T16:34:39;14.60;99.90
10492;DHT22;5293;51.464;-2.566;2022-11-13T16:37:15;14.60;99.90
10492;DHT22;5293;51.464;-2.566;2022-11-13T16:39:42;14.60;99.90
10492;DHT22;5293;51.464;-2.566;2022-11-13T16:42:08;14.50;99.90
10492;DHT22;5293;51.464;-2.566;2022-11-13T16:44:33;14.50;99.90
10492;DHT22;5293;51.464;-2.566;2022-11-13T16:46:59;14.40;99.90
10492;DHT22;5293;51.464;-2.566;2022-11-13T16:49:25;14.40;99.90
10492;DHT22;5293;51.464;-2.566;2022-11-13T16:51:51;14.40;99.90
10492;DHT22;5293;51.464;-2.566;2022-11-13T16:54:18;14.40;99.90
10492;DHT22;5293;51.464;-2.566;2022-11-13T16:56:44;14.40;99.90
10492;DHT22;5293;51.464;-2.566;2022-11-13T16:59:11;14.30;99.90
10492;DHT22;5293;51.464;-2.566;2022-11-13T17:01:37;14.30;99.90
10492;DHT22;5293;51.464;-2.566;2022-11-13T17:04:03;14.20;99.90
10492;DHT22;5293;51.464;-2.566;2022-11-13T17:06:32;14.20;99.90
10492;DHT22;5293;51.464;-2.566;2022-11-13T17:08:59;14.30;99.90
10492;DHT22;5293;51.464;-2.566;2022-11-13T17:11:28;14.20;99.90
10492;DHT22;5293;51.464;-2.566;2022-11-13T17:13:56;14.10;99.90